sensor_id;sensor_type;location;lat;lon;timestamp;P1;durP1;ratioP1;P2;durP2;ratioP2
29478;SDS011;16437;41.836;23.480;2022-07-22T00:02:53;3.37;;;2.45;;
29478;SDS011;16437;41.836;23.480;2022-07-22T00:08:19;3.22;;;2.60;;
29478;SDS011;16437;41.836;23.480;2022-07-22T00:13:45;4.60;;;2.75;;
29478;SDS011;16437;41.836;23.480;2022-07-22T00:19:12;3.62;;;2.77;;
29478;SDS011;16437;41.836;23.480;2022-07-22T00:24:38;3.60;;;2.65;;
29478;SDS011;16437;41.836;23.480;2022-07-22T00:30:05;2.92;;;2.62;;
29478;SDS011;16437;41.836;23.480;2022-07-22T00:35:32;3.50;;;2.70;;
29478;SDS011;16437;41.836;23.480;2022-07-22T00:40:59;5.00;;;2.72;;
29478;SDS011;16437;41.836;23.480;2022-07-22T00:46:26;4.60;;;2.80;;
29478;SDS011;16437;41.836;23.480;2022-07-22T00:51:53;3.25;;;2.67;;
29478;SDS011;16437;41.836;23.480;2022-07-22T00:57:20;3.33;;;2.60;;
29478;SDS011;16437;41.836;23.480;2022-07-22T01:02:47;3.40;;;2.65;;
29478;SDS011;16437;41.836;23.480;2022-07-22T01:08:13;2.85;;;2.45;;
29478;SDS011;16437;41.836;23.480;2022-07-22T01:13:40;3.67;;;2.80;;
29478;SDS011;16437;41.836;23.480;2022-07-22T01:19:07;3.05;;;2.42;;
29478;SDS011;16437;41.836;23.480;2022-07-22T01:24:35;4.22;;;2.58;;
29478;SDS011;16437;41.836;23.480;2022-07-22T01:30:02;2.87;;;2.58;;
29478;SDS011;16437;41.836;23.480;2022-07-22T01:35:30;3.33;;;2.72;;
29478;SDS011;16437;41.836;23.480;2022-07-22T01:40:56;4.80;;;2.92;;
29478;SDS011;16437;41.836;23.480;2022-07-22T01:46:23;3.65;;;2.58;;
29478;SDS011;16437;41.836;23.480;2022-07-22T01:51:50;3.35;;;2.45;;
29478;SDS011;16437;41.836;23.480;2022-07-22T01:57:16;3.65;;;2.67;;
29478;SDS011;16437;41.836;23.480;2022-07-22T02:02:42;3.37;;;2.70;;
29478;SDS011;16437;41.836;23.480;2022-07-22T02:08:09;4.85;;;3.37;;
29478;SDS011;16437;41.836;23.480;2022-07-22T02:13:37;5.00;;;3.22;;
29478;SDS011;16437;41.836;23.480;2022-07-22T02:19:04;4.50;;;2.87;;
29478;SDS011;16437;41.836;23.480;2022-07-22T02:24:30;4.87;;;3.30;;
29478;SDS011;16437;41.836;23.480;2022-07-22T02:29:57;5.00;;;3.62;;
29478;SDS011;16437;41.836;23.480;2022-07-22T02:35:24;4.62;;;3.45;;
29478;SDS011;16437;41.836;23.480;2022-07-22T02:40:50;3.35;;;3.05;;
29478;SDS011;16437;41.836;23.480;2022-07-22T02:46:17;5.10;;;3.60;;
29478;SDS011;16437;41.836;23.480;2022-07-22T02:51:43;5.78;;;3.98;;
29478;SDS011;16437;41.836;23.480;2022-07-22T02:57:09;5.28;;;3.30;;
29478;SDS011;16437;41.836;23.480;2022-07-22T03:02:36;5.83;;;4.20;;
29478;SDS011;16437;41.836;23.480;2022-07-22T03:08:03;4.60;;;3.42;;
29478;SDS011;16437;41.836;23.480;2022-07-22T03:13:29;5.45;;;3.80;;
29478;SDS011;16437;41.836;23.480;2022-07-22T03:18:56;8.53;;;3.92;;
29478;SDS011;16437;41.836;23.480;2022-07-22T03:24:22;5.30;;;3.77;;
29478;SDS011;16437;41.836;23.480;2022-07-22T03:29:48;5.10;;;4.10;;
29478;SDS011;16437;41.836;23.480;2022-07-22T03:35:15;5.78;;;3.83;;
29478;SDS011;16437;41.836;23.480;2022-07-22T03:40:42;6.53;;;4.40;;
29478;SDS011;16437;41.836;23.480;2022-07-22T03:46:08;6.62;;;4.30;;
29478;SDS011;16437;41.836;23.480;2022-07-22T03:51:35;5.42;;;4.12;;
29478;SDS011;16437;41.836;23.480;2022-07-22T03:57:01;5.78;;;4.17;;
29478;SDS011;16437;41.836;23.480;2022-07-22T04:02:28;6.55;;;4.92;;
29478;SDS011;16437;41.836;23.480;2022-07-22T04:07:54;6.45;;;4.28;;
29478;SDS011;16437;41.836;23.480;2022-07-22T04:13:20;7.40;;;4.75;;
29478;SDS011;16437;41.836;23.480;2022-07-22T04:18:47;7.45;;;5.75;;
29478;SDS011;16437;41.836;23.480;2022-07-22T04:24:13;11.08;;;6.83;;
29478;SDS011;16437;41.836;23.480;2022-07-22T04:29:40;9.93;;;6.55;;
29478;SDS011;16437;41.836;23.480;2022-07-22T04:35:06;10.88;;;7.30;;
29478;SDS011;16437;41.836;23.480;2022-07-22T04:40:33;12.70;;;8.08;;
29478;SDS011;16437;41.836;23.480;2022-07-22T04:46:00;14.07;;;8.35;;
29478;SDS011;16437;41.836;23.480;2022-07-22T04:51:26;12.30;;;8.43;;
29478;SDS011;16437;41.836;23.480;2022-07-22T04:56:52;13.00;;;8.55;;
29478;SDS011;16437;41.836;23.480;2022-07-22T05:02:19;13.55;;;8.38;;
29478;SDS011;16437;41.836;23.480;2022-07-22T05:07:45;13.13;;;8.28;;
29478;SDS011;16437;41.836;23.480;2022-07-22T05:13:12;12.45;;;8.90;;
29478;SDS011;16437;41.836;23.480;2022-07-22T05:18:39;13.38;;;9.10;;
29478;SDS011;16437;41.836;23.480;2022-07-22T05:24:05;13.70;;;9.55;;
29478;SDS011;16437;41.836;23.480;2022-07-22T05:29:32;14.18;;;9.68;;
29478;SDS011;16437;41.836;23.480;2022-07-22T05:34:59;18.35;;;11.35;;
29478;SDS011;16437;41.836;23.480;2022-07-22T05:40:26;17.65;;;10.88;;
29478;SDS011;16437;41.836;23.480;2022-07-22T05:45:53;15.90;;;10.35;;
29478;SDS011;16437;41.836;23.480;2022-07-22T05:51:20;17.30;;;11.30;;
29478;SDS011;16437;41.836;23.480;2022-07-22T05:56:46;20.08;;;12.25;;
29478;SDS011;16437;41.836;23.480;2022-07-22T06:02:13;18.30;;;11.95;;
29478;SDS011;16437;41.836;23.480;2022-07-22T06:07:39;19.70;;;12.55;;
29478;SDS011;16437;41.836;23.480;2022-07-22T06:13:06;19.48;;;12.60;;
29478;SDS011;16437;41.836;23.480;2022-07-22T06:18:32;20.27;;;12.50;;
29478;SDS011;16437;41.836;23.480;2022-07-22T06:23:59;19.65;;;12.37;;
29478;SDS011;16437;41.836;23.480;2022-07-22T06:29:26;22.90;;;12.70;;
29478;SDS011;16437;41.836;23.480;2022-07-22T06:34:52;18.23;;;12.05;;
29478;SDS011;16437;41.836;23.480;2022-07-22T06:40:19;19.65;;;12.00;;
29478;SDS011;16437;41.836;23.480;2022-07-22T06:45:45;17.95;;;11.88;;
29478;SDS011;16437;41.836;23.480;2022-07-22T06:51:11;17.95;;;11.45;;
29478;SDS011;16437;41.836;23.480;2022-07-22T06:56:38;19.05;;;12.82;;
29478;SDS011;16437;41.836;23.480;2022-07-22T07:02:04;21.15;;;12.40;;
29478;SDS011;16437;41.836;23.480;2022-07-22T07:07:30;17.73;;;12.20;;
29478;SDS011;16437;41.836;23.480;2022-07-22T07:12:57;21.77;;;13.30;;
29478;SDS011;16437;41.836;23.480;2022-07-22T07:18:24;22.32;;;11.55;;
29478;SDS011;16437;41.836;23.480;2022-07-22T07:23:51;18.25;;;12.25;;
29478;SDS011;16437;41.836;23.480;2022-07-22T07:29:17;19.45;;;12.15;;
29478;SDS011;16437;41.836;23.480;2022-07-22T07:34:44;15.30;;;10.50;;
29478;SDS011;16437;41.836;23.480;2022-07-22T07:40:10;17.45;;;10.93;;
29478;SDS011;16437;41.836;23.480;2022-07-22T07:45:37;19.15;;;11.20;;
29478;SDS011;16437;41.836;23.480;2022-07-22T07:51:03;15.20;;;10.03;;
29478;SDS011;16437;41.836;23.480;2022-07-22T07:56:30;13.93;;;9.50;;
29478;SDS011;16437;41.836;23.480;2022-07-22T08:01:57;15.13;;;9.80;;
29478;SDS011;16437;41.836;23.480;2022-07-22T08:07:23;13.48;;;9.38;;
29478;SDS011;16437;41.836;23.480;2022-07-22T08:12:50;14.95;;;9.95;;
29478;SDS011;16437;41.836;23.480;2022-07-22T08:18:18;13.05;;;8.35;;
29478;SDS011;16437;41.836;23.480;2022-07-22T08:23:44;13.55;;;8.70;;
29478;SDS011;16437;41.836;23.480;2022-07-22T08:29:11;12.43;;;8.10;;
29478;SDS011;16437;41.836;23.480;2022-07-22T08:34:37;12.18;;;7.80;;
29478;SDS011;16437;41.836;23.480;2022-07-22T08:40:05;14.10;;;8.83;;
29478;SDS011;16437;41.836;23.480;2022-07-22T08:45:33;11.63;;;6.90;;
29478;SDS011;16437;41.836;23.480;2022-07-22T08:51:00;11.45;;;7.03;;
29478;SDS011;16437;41.836;23.480;2022-07-22T08:56:26;14.65;;;8.73;;
29478;SDS011;16437;41.836;23.480;2022-07-22T09:02:06;9.88;;;7.05;;
29478;SDS011;16437;41.836;23.480;2022-07-22T09:07:38;11.50;;;7.25;;
29478;SDS011;16437;41.836;23.480;2022-07-22T09:13:07;10.90;;;6.78;;
29478;SDS011;16437;41.836;23.480;2022-07-22T09:18:50;10.75;;;5.70;;
29478;SDS011;16437;41.836;23.480;2022-07-22T09:24:25;9.53;;;6.05;;
29478;SDS011;16437;41.836;23.480;2022-07-22T09:29:53;10.82;;;6.62;;
29478;SDS011;16437;41.836;23.480;2022-07-22T09:35:20;7.10;;;4.97;;
29478;SDS011;16437;41.836;23.480;2022-07-22T09:40:48;6.90;;;4.70;;
29478;SDS011;16437;41.836;23.480;2022-07-22T09:46:14;8.08;;;5.00;;
29478;SDS011;16437;41.836;23.480;2022-07-22T09:51:40;8.28;;;5.33;;
29478;SDS011;16437;41.836;23.480;2022-07-22T09:57:07;7.83;;;5.33;;
29478;SDS011;16437;41.836;23.480;2022-07-22T10:02:34;8.83;;;5.03;;
29478;SDS011;16437;41.836;23.480;2022-07-22T10:08:04;6.75;;;4.72;;
29478;SDS011;16437;41.836;23.480;2022-07-22T10:13:31;7.12;;;4.58;;
29478;SDS011;16437;41.836;23.480;2022-07-22T10:18:59;8.85;;;5.00;;
29478;SDS011;16437;41.836;23.480;2022-07-22T10:24:25;7.97;;;4.40;;
29478;SDS011;16437;41.836;23.480;2022-07-22T10:29:51;6.35;;;4.35;;
29478;SDS011;16437;41.836;23.480;2022-07-22T10:35:19;6.08;;;4.35;;
29478;SDS011;16437;41.836;23.480;2022-07-22T10:40:48;6.58;;;4.22;;
29478;SDS011;16437;41.836;23.480;2022-07-22T10:46:19;6.72;;;4.10;;
29478;SDS011;16437;41.836;23.480;2022-07-22T10:57:38;6.92;;;4.05;;
29478;SDS011;16437;41.836;23.480;2022-07-22T11:03:04;7.35;;;4.53;;
29478;SDS011;16437;41.836;23.480;2022-07-22T11:08:30;7.55;;;4.22;;
29478;SDS011;16437;41.836;23.480;2022-07-22T11:13:57;6.12;;;4.37;;
29478;SDS011;16437;41.836;23.480;2022-07-22T11:19:25;8.98;;;4.33;;
29478;SDS011;16437;41.836;23.480;2022-07-22T11:24:53;6.87;;;3.62;;
29478;SDS011;16437;41.836;23.480;2022-07-22T11:30:19;6.85;;;3.72;;
29478;SDS011;16437;41.836;23.480;2022-07-22T11:36:02;8.83;;;4.12;;
29478;SDS011;16437;41.836;23.480;2022-07-22T11:41:30;4.83;;;3.62;;
29478;SDS011;16437;41.836;23.480;2022-07-22T11:46:57;5.03;;;3.40;;
29478;SDS011;16437;41.836;23.480;2022-07-22T11:52:25;5.72;;;3.98;;
29478;SDS011;16437;41.836;23.480;2022-07-22T11:57:51;7.85;;;3.87;;
29478;SDS011;16437;41.836;23.480;2022-07-22T12:03:18;5.75;;;3.27;;
29478;SDS011;16437;41.836;23.480;2022-07-22T12:08:46;5.35;;;3.40;;
29478;SDS011;16437;41.836;23.480;2022-07-22T12:14:26;6.00;;;3.58;;
29478;SDS011;16437;41.836;23.480;2022-07-22T12:19:49;6.58;;;3.52;;
29478;SDS011;16437;41.836;23.480;2022-07-22T12:25:15;7.75;;;3.90;;
29478;SDS011;16437;41.836;23.480;2022-07-22T12:30:43;6.80;;;3.72;;
29478;SDS011;16437;41.836;23.480;2022-07-22T12:36:10;4.75;;;3.58;;
29478;SDS011;16437;41.836;23.480;2022-07-22T12:41:43;4.47;;;3.30;;
29478;SDS011;16437;41.836;23.480;2022-07-22T12:47:06;5.00;;;3.80;;
29478;SDS011;16437;41.836;23.480;2022-07-22T12:52:32;8.25;;;4.00;;
29478;SDS011;16437;41.836;23.480;2022-07-22T12:57:59;4.83;;;3.60;;
29478;SDS011;16437;41.836;23.480;2022-07-22T13:03:26;5.42;;;3.52;;
29478;SDS011;16437;41.836;23.480;2022-07-22T13:08:54;10.50;;;4.42;;
29478;SDS011;16437;41.836;23.480;2022-07-22T13:14:21;5.53;;;3.70;;
29478;SDS011;16437;41.836;23.480;2022-07-22T13:19:47;5.20;;;3.47;;
29478;SDS011;16437;41.836;23.480;2022-07-22T13:25:13;4.45;;;3.67;;
29478;SDS011;16437;41.836;23.480;2022-07-22T13:30:40;6.17;;;3.83;;
29478;SDS011;16437;41.836;23.480;2022-07-22T13:36:06;3.77;;;3.27;;
29478;SDS011;16437;41.836;23.480;2022-07-22T13:41:33;4.83;;;3.60;;
29478;SDS011;16437;41.836;23.480;2022-07-22T13:46:59;6.03;;;3.98;;
29478;SDS011;16437;41.836;23.480;2022-07-22T13:52:26;8.28;;;3.58;;
29478;SDS011;16437;41.836;23.480;2022-07-22T13:57:52;5.22;;;3.65;;
29478;SDS011;16437;41.836;23.480;2022-07-22T14:03:21;4.58;;;3.30;;
29478;SDS011;16437;41.836;23.480;2022-07-22T14:08:48;6.55;;;3.87;;
29478;SDS011;16437;41.836;23.480;2022-07-22T14:14:15;7.72;;;3.47;;
29478;SDS011;16437;41.836;23.480;2022-07-22T14:19:41;4.83;;;3.70;;
29478;SDS011;16437;41.836;23.480;2022-07-22T14:25:08;5.47;;;3.65;;
29478;SDS011;16437;41.836;23.480;2022-07-22T14:30:34;5.17;;;3.75;;
29478;SDS011;16437;41.836;23.480;2022-07-22T14:36:01;6.20;;;3.17;;
29478;SDS011;16437;41.836;23.480;2022-07-22T14:41:28;4.30;;;3.30;;
29478;SDS011;16437;41.836;23.480;2022-07-22T14:46:54;7.35;;;3.60;;
29478;SDS011;16437;41.836;23.480;2022-07-22T14:52:20;6.90;;;3.42;;
29478;SDS011;16437;41.836;23.480;2022-07-22T14:57:47;4.12;;;3.37;;
29478;SDS011;16437;41.836;23.480;2022-07-22T15:03:13;5.00;;;3.10;;
29478;SDS011;16437;41.836;23.480;2022-07-22T15:08:40;7.67;;;3.70;;
29478;SDS011;16437;41.836;23.480;2022-07-22T15:14:07;3.52;;;2.90;;
29478;SDS011;16437;41.836;23.480;2022-07-22T15:19:33;6.15;;;3.50;;
29478;SDS011;16437;41.836;23.480;2022-07-22T15:25:00;9.15;;;3.65;;
29478;SDS011;16437;41.836;23.480;2022-07-22T15:30:26;5.37;;;3.37;;
29478;SDS011;16437;41.836;23.480;2022-07-22T15:35:52;7.62;;;3.12;;
29478;SDS011;16437;41.836;23.480;2022-07-22T15:41:19;4.97;;;3.45;;
29478;SDS011;16437;41.836;23.480;2022-07-22T15:46:46;6.37;;;3.30;;
29478;SDS011;16437;41.836;23.480;2022-07-22T15:52:12;4.35;;;3.20;;
29478;SDS011;16437;41.836;23.480;2022-07-22T15:57:39;4.53;;;2.95;;
29478;SDS011;16437;41.836;23.480;2022-07-22T16:03:24;6.55;;;3.85;;
29478;SDS011;16437;41.836;23.480;2022-07-22T16:08:51;7.30;;;2.95;;
29478;SDS011;16437;41.836;23.480;2022-07-22T16:14:18;6.03;;;3.58;;
29478;SDS011;16437;41.836;23.480;2022-07-22T16:19:44;7.22;;;3.33;;
29478;SDS011;16437;41.836;23.480;2022-07-22T16:25:10;5.42;;;3.58;;
29478;SDS011;16437;41.836;23.480;2022-07-22T16:30:37;6.20;;;3.70;;
29478;SDS011;16437;41.836;23.480;2022-07-22T16:36:03;5.40;;;3.45;;
29478;SDS011;16437;41.836;23.480;2022-07-22T16:41:31;5.50;;;4.03;;
29478;SDS011;16437;41.836;23.480;2022-07-22T16:46:57;5.80;;;3.60;;
29478;SDS011;16437;41.836;23.480;2022-07-22T16:52:24;6.12;;;3.90;;
29478;SDS011;16437;41.836;23.480;2022-07-22T16:57:51;5.85;;;3.67;;
29478;SDS011;16437;41.836;23.480;2022-07-22T17:03:18;6.97;;;3.87;;
29478;SDS011;16437;41.836;23.480;2022-07-22T17:08:44;6.75;;;4.05;;
29478;SDS011;16437;41.836;23.480;2022-07-22T17:14:11;5.70;;;3.72;;
29478;SDS011;16437;41.836;23.480;2022-07-22T17:19:37;7.58;;;4.03;;
29478;SDS011;16437;41.836;23.480;2022-07-22T17:25:04;7.72;;;4.12;;
29478;SDS011;16437;41.836;23.480;2022-07-22T17:30:30;5.35;;;3.92;;
29478;SDS011;16437;41.836;23.480;2022-07-22T17:35:57;9.15;;;4.47;;
29478;SDS011;16437;41.836;23.480;2022-07-22T17:41:23;9.93;;;4.15;;
29478;SDS011;16437;41.836;23.480;2022-07-22T17:46:49;6.95;;;4.55;;
29478;SDS011;16437;41.836;23.480;2022-07-22T17:52:17;7.45;;;4.10;;
29478;SDS011;16437;41.836;23.480;2022-07-22T17:57:44;7.75;;;4.40;;
29478;SDS011;16437;41.836;23.480;2022-07-22T18:03:11;6.85;;;4.05;;
29478;SDS011;16437;41.836;23.480;2022-07-22T18:08:38;5.97;;;3.70;;
29478;SDS011;16437;41.836;23.480;2022-07-22T18:14:05;6.58;;;3.65;;
29478;SDS011;16437;41.836;23.480;2022-07-22T18:19:31;5.33;;;3.70;;
29478;SDS011;16437;41.836;23.480;2022-07-22T18:24:57;5.50;;;3.72;;
29478;SDS011;16437;41.836;23.480;2022-07-22T18:30:24;5.83;;;3.80;;
29478;SDS011;16437;41.836;23.480;2022-07-22T18:35:50;6.37;;;3.80;;
29478;SDS011;16437;41.836;23.480;2022-07-22T18:41:16;6.62;;;3.90;;
29478;SDS011;16437;41.836;23.480;2022-07-22T18:46:43;5.60;;;3.95;;
29478;SDS011;16437;41.836;23.480;2022-07-22T18:52:09;5.90;;;3.83;;
29478;SDS011;16437;41.836;23.480;2022-07-22T18:57:36;7.55;;;3.80;;
29478;SDS011;16437;41.836;23.480;2022-07-22T19:03:03;5.85;;;3.75;;
29478;SDS011;16437;41.836;23.480;2022-07-22T19:08:30;4.90;;;3.65;;
29478;SDS011;16437;41.836;23.480;2022-07-22T19:13:56;4.90;;;3.75;;
29478;SDS011;16437;41.836;23.480;2022-07-22T19:19:23;6.28;;;3.40;;
29478;SDS011;16437;41.836;23.480;2022-07-22T19:24:50;7.25;;;3.98;;
29478;SDS011;16437;41.836;23.480;2022-07-22T19:30:16;6.00;;;4.03;;
29478;SDS011;16437;41.836;23.480;2022-07-22T19:35:42;7.37;;;4.00;;
29478;SDS011;16437;41.836;23.480;2022-07-22T19:41:09;5.42;;;3.70;;
29478;SDS011;16437;41.836;23.480;2022-07-22T19:46:35;7.70;;;4.12;;
29478;SDS011;16437;41.836;23.480;2022-07-22T19:52:02;7.12;;;4.03;;
29478;SDS011;16437;41.836;23.480;2022-07-22T19:57:29;6.42;;;3.62;;
29478;SDS011;16437;41.836;23.480;2022-07-22T20:02:57;5.20;;;4.05;;
29478;SDS011;16437;41.836;23.480;2022-07-22T20:08:24;5.62;;;3.62;;
29478;SDS011;16437;41.836;23.480;2022-07-22T20:13:50;6.75;;;4.20;;
29478;SDS011;16437;41.836;23.480;2022-07-22T20:19:17;5.10;;;3.85;;
29478;SDS011;16437;41.836;23.480;2022-07-22T20:24:43;4.40;;;3.95;;
29478;SDS011;16437;41.836;23.480;2022-07-22T20:30:10;6.22;;;3.98;;
29478;SDS011;16437;41.836;23.480;2022-07-22T20:35:37;6.25;;;4.10;;
29478;SDS011;16437;41.836;23.480;2022-07-22T20:41:04;5.30;;;3.85;;
29478;SDS011;16437;41.836;23.480;2022-07-22T20:46:30;6.05;;;4.25;;
29478;SDS011;16437;41.836;23.480;2022-07-22T20:51:57;4.90;;;3.75;;
29478;SDS011;16437;41.836;23.480;2022-07-22T20:57:24;5.45;;;3.90;;
29478;SDS011;16437;41.836;23.480;2022-07-22T21:02:50;8.10;;;4.65;;
29478;SDS011;16437;41.836;23.480;2022-07-22T21:08:17;4.67;;;3.90;;
29478;SDS011;16437;41.836;23.480;2022-07-22T21:13:43;5.30;;;3.27;;
29478;SDS011;16437;41.836;23.480;2022-07-22T21:19:10;5.25;;;4.22;;
29478;SDS011;16437;41.836;23.480;2022-07-22T21:24:36;5.42;;;3.40;;
29478;SDS011;16437;41.836;23.480;2022-07-22T21:30:03;5.85;;;4.15;;
29478;SDS011;16437;41.836;23.480;2022-07-22T21:35:31;5.30;;;4.17;;
29478;SDS011;16437;41.836;23.480;2022-07-22T21:40:57;4.30;;;3.55;;
29478;SDS011;16437;41.836;23.480;2022-07-22T21:46:23;7.55;;;4.10;;
29478;SDS011;16437;41.836;23.480;2022-07-22T21:51:50;5.33;;;3.83;;
29478;SDS011;16437;41.836;23.480;2022-07-22T21:57:16;6.03;;;4.15;;
29478;SDS011;16437;41.836;23.480;2022-07-22T22:02:43;4.62;;;3.75;;
29478;SDS011;16437;41.836;23.480;2022-07-22T22:08:09;5.80;;;3.72;;
29478;SDS011;16437;41.836;23.480;2022-07-22T22:13:36;5.22;;;3.90;;
29478;SDS011;16437;41.836;23.480;2022-07-22T22:19:02;5.72;;;4.03;;
29478;SDS011;16437;41.836;23.480;2022-07-22T22:24:29;4.95;;;4.00;;
29478;SDS011;16437;41.836;23.480;2022-07-22T22:29:55;4.87;;;3.80;;
29478;SDS011;16437;41.836;23.480;2022-07-22T22:35:22;4.62;;;3.75;;
29478;SDS011;16437;41.836;23.480;2022-07-22T22:40:48;4.62;;;3.90;;
29478;SDS011;16437;41.836;23.480;2022-07-22T22:46:15;5.10;;;3.85;;
29478;SDS011;16437;41.836;23.480;2022-07-22T22:51:42;4.22;;;3.83;;
29478;SDS011;16437;41.836;23.480;2022-07-22T22:57:09;5.33;;;4.08;;
29478;SDS011;16437;41.836;23.480;2022-07-22T23:02:36;3.95;;;3.22;;
29478;SDS011;16437;41.836;23.480;2022-07-22T23:08:02;6.72;;;3.98;;
29478;SDS011;16437;41.836;23.480;2022-07-22T23:13:29;4.97;;;3.65;;
29478;SDS011;16437;41.836;23.480;2022-07-22T23:18:56;5.62;;;4.03;;
29478;SDS011;16437;41.836;23.480;2022-07-22T23:24:23;3.75;;;3.33;;
29478;SDS011;16437;41.836;23.480;2022-07-22T23:29:49;5.30;;;3.77;;
29478;SDS011;16437;41.836;23.480;2022-07-22T23:35:15;4.78;;;3.80;;
29478;SDS011;16437;41.836;23.480;2022-07-22T23:40:42;4.85;;;3.52;;
29478;SDS011;16437;41.836;23.480;2022-07-22T23:46:09;5.55;;;3.80;;
29478;SDS011;16437;41.836;23.480;2022-07-22T23:51:35;5.75;;;4.00;;
29478;SDS011;16437;41.836;23.480;2022-07-22T23:57:02;4.58;;;3.92;;
